sensor_id;sensor_type;location;lat;lon;timestamp;P1;durP1;ratioP1;P2;durP2;ratioP2
23567;SDS011;11962;50.838;4.430;2023-05-10T00:01:05;16.10;;;7.10;;
23567;SDS011;11962;50.838;4.430;2023-05-10T00:03:31;13.77;;;7.15;;
23567;SDS011;11962;50.838;4.430;2023-05-10T00:05:57;12.05;;;6.72;;
23567;SDS011;11962;50.838;4.430;2023-05-10T00:08:22;12.02;;;8.40;;
23567;SDS011;11962;50.838;4.430;2023-05-10T00:10:48;13.50;;;7.30;;
23567;SDS011;11962;50.838;4.430;2023-05-10T00:13:14;15.77;;;7.10;;
23567;SDS011;11962;50.838;4.430;2023-05-10T00:15:40;13.10;;;7.60;;
23567;SDS011;11962;50.838;4.430;2023-05-10T00:18:06;14.50;;;7.60;;
23567;SDS011;11962;50.838;4.430;2023-05-10T00:20:32;17.90;;;7.45;;
23567;SDS011;11962;50.838;4.430;2023-05-10T00:22:58;15.45;;;7.72;;
23567;SDS011;11962;50.838;4.430;2023-05-10T00:25:23;12.75;;;6.82;;
23567;SDS011;11962;50.838;4.430;2023-05-10T00:27:49;13.25;;;7.78;;
23567;SDS011;11962;50.838;4.430;2023-05-10T00:30:15;17.23;;;7.10;;
23567;SDS011;11962;50.838;4.430;2023-05-10T00:32:41;16.98;;;7.97;;
23567;SDS011;11962;50.838;4.430;2023-05-10T00:35:08;17.02;;;7.60;;
23567;SDS011;11962;50.838;4.430;2023-05-10T00:37:34;15.35;;;7.22;;
23567;SDS011;11962;50.838;4.430;2023-05-10T00:39:59;15.20;;;8.30;;
23567;SDS011;11962;50.838;4.430;2023-05-10T00:42:25;12.02;;;7.90;;
23567;SDS011;11962;50.838;4.430;2023-05-10T00:44:51;16.35;;;8.52;;
23567;SDS011;11962;50.838;4.430;2023-05-10T00:47:16;14.88;;;8.27;;
23567;SDS011;11962;50.838;4.430;2023-05-10T00:49:43;14.32;;;7.82;;
23567;SDS011;11962;50.838;4.430;2023-05-10T00:52:09;15.32;;;8.07;;
23567;SDS011;11962;50.838;4.430;2023-05-10T00:54:35;15.77;;;8.38;;
23567;SDS011;11962;50.838;4.430;2023-05-10T00:57:01;15.18;;;8.38;;
23567;SDS011;11962;50.838;4.430;2023-05-10T00:59:28;13.73;;;7.97;;
23567;SDS011;11962;50.838;4.430;2023-05-10T01:01:54;13.23;;;8.35;;
23567;SDS011;11962;50.838;4.430;2023-05-10T01:04:20;13.55;;;8.60;;
23567;SDS011;11962;50.838;4.430;2023-05-10T01:06:50;14.52;;;8.48;;
23567;SDS011;11962;50.838;4.430;2023-05-10T01:09:17;12.60;;;8.05;;
23567;SDS011;11962;50.838;4.430;2023-05-10T01:11:44;16.20;;;9.40;;
23567;SDS011;11962;50.838;4.430;2023-05-10T01:14:10;15.20;;;8.70;;
23567;SDS011;11962;50.838;4.430;2023-05-10T01:16:37;13.98;;;9.07;;
23567;SDS011;11962;50.838;4.430;2023-05-10T01:19:05;18.90;;;9.23;;
23567;SDS011;11962;50.838;4.430;2023-05-10T01:24:38;15.90;;;9.13;;
23567;SDS011;11962;50.838;4.430;2023-05-10T01:33:24;17.38;;;10.55;;
23567;SDS011;11962;50.838;4.430;2023-05-10T01:41:58;15.70;;;10.35;;
23567;SDS011;11962;50.838;4.430;2023-05-10T01:47:17;15.70;;;10.18;;
23567;SDS011;11962;50.838;4.430;2023-05-10T01:49:56;15.82;;;9.40;;
23567;SDS011;11962;50.838;4.430;2023-05-10T01:52:27;17.88;;;10.25;;
23567;SDS011;11962;50.838;4.430;2023-05-10T01:55:08;18.52;;;9.95;;
23567;SDS011;11962;50.838;4.430;2023-05-10T01:57:37;15.52;;;10.50;;
23567;SDS011;11962;50.838;4.430;2023-05-10T02:00:05;16.75;;;10.30;;
23567;SDS011;11962;50.838;4.430;2023-05-10T02:02:35;16.88;;;10.77;;
23567;SDS011;11962;50.838;4.430;2023-05-10T02:05:03;18.90;;;10.15;;
23567;SDS011;11962;50.838;4.430;2023-05-10T02:07:32;16.70;;;10.35;;
23567;SDS011;11962;50.838;4.430;2023-05-10T02:10:05;17.83;;;11.25;;
23567;SDS011;11962;50.838;4.430;2023-05-10T02:12:36;17.50;;;10.57;;
23567;SDS011;11962;50.838;4.430;2023-05-10T02:15:11;18.65;;;10.77;;
23567;SDS011;11962;50.838;4.430;2023-05-10T02:17:40;16.85;;;10.27;;
23567;SDS011;11962;50.838;4.430;2023-05-10T02:20:08;19.10;;;11.20;;
23567;SDS011;11962;50.838;4.430;2023-05-10T02:22:35;19.50;;;10.98;;
23567;SDS011;11962;50.838;4.430;2023-05-10T02:25:02;17.50;;;10.77;;
23567;SDS011;11962;50.838;4.430;2023-05-10T02:27:29;18.05;;;11.13;;
23567;SDS011;11962;50.838;4.430;2023-05-10T02:29:55;16.77;;;10.57;;
23567;SDS011;11962;50.838;4.430;2023-05-10T02:32:24;19.10;;;10.60;;
23567;SDS011;11962;50.838;4.430;2023-05-10T02:34:51;16.45;;;10.40;;
23567;SDS011;11962;50.838;4.430;2023-05-10T02:37:18;15.10;;;10.35;;
23567;SDS011;11962;50.838;4.430;2023-05-10T02:42:13;15.50;;;9.32;;
23567;SDS011;11962;50.838;4.430;2023-05-10T02:44:42;13.93;;;9.60;;
23567;SDS011;11962;50.838;4.430;2023-05-10T02:47:10;16.48;;;9.95;;
23567;SDS011;11962;50.838;4.430;2023-05-10T02:49:36;17.92;;;9.45;;
23567;SDS011;11962;50.838;4.430;2023-05-10T02:52:03;17.33;;;9.27;;
23567;SDS011;11962;50.838;4.430;2023-05-10T02:54:33;17.65;;;9.15;;
23567;SDS011;11962;50.838;4.430;2023-05-10T02:57:11;16.10;;;8.68;;
23567;SDS011;11962;50.838;4.430;2023-05-10T02:59:47;18.38;;;9.27;;
23567;SDS011;11962;50.838;4.430;2023-05-10T03:02:13;13.77;;;8.88;;
23567;SDS011;11962;50.838;4.430;2023-05-10T03:04:38;13.63;;;8.77;;
23567;SDS011;11962;50.838;4.430;2023-05-10T03:07:04;17.08;;;9.15;;
23567;SDS011;11962;50.838;4.430;2023-05-10T03:09:30;18.42;;;8.68;;
23567;SDS011;11962;50.838;4.430;2023-05-10T03:14:52;12.63;;;9.00;;
23567;SDS011;11962;50.838;4.430;2023-05-10T03:20:12;15.55;;;9.20;;
23567;SDS011;11962;50.838;4.430;2023-05-10T03:22:47;14.25;;;8.82;;
23567;SDS011;11962;50.838;4.430;2023-05-10T03:25:16;15.40;;;9.52;;
23567;SDS011;11962;50.838;4.430;2023-05-10T03:27:46;15.95;;;9.18;;
23567;SDS011;11962;50.838;4.430;2023-05-10T03:30:12;18.40;;;8.63;;
23567;SDS011;11962;50.838;4.430;2023-05-10T03:32:38;14.88;;;9.30;;
23567;SDS011;11962;50.838;4.430;2023-05-10T03:35:11;15.85;;;9.15;;
23567;SDS011;11962;50.838;4.430;2023-05-10T03:37:38;16.95;;;9.80;;
23567;SDS011;11962;50.838;4.430;2023-05-10T03:40:04;17.25;;;10.00;;
23567;SDS011;11962;50.838;4.430;2023-05-10T03:42:31;20.10;;;9.95;;
23567;SDS011;11962;50.838;4.430;2023-05-10T03:44:57;19.88;;;11.13;;
23567;SDS011;11962;50.838;4.430;2023-05-10T03:47:22;18.13;;;10.93;;
23567;SDS011;11962;50.838;4.430;2023-05-10T03:49:48;21.58;;;11.98;;
23567;SDS011;11962;50.838;4.430;2023-05-10T03:52:14;22.25;;;11.43;;
23567;SDS011;11962;50.838;4.430;2023-05-10T03:54:40;23.05;;;12.93;;
23567;SDS011;11962;50.838;4.430;2023-05-10T03:57:06;19.30;;;12.73;;
23567;SDS011;11962;50.838;4.430;2023-05-10T03:59:31;24.17;;;13.98;;
23567;SDS011;11962;50.838;4.430;2023-05-10T04:01:57;20.60;;;13.25;;
23567;SDS011;11962;50.838;4.430;2023-05-10T04:04:23;21.92;;;12.90;;
23567;SDS011;11962;50.838;4.430;2023-05-10T04:06:49;24.67;;;14.57;;
23567;SDS011;11962;50.838;4.430;2023-05-10T04:09:15;22.85;;;13.70;;
23567;SDS011;11962;50.838;4.430;2023-05-10T04:11:42;23.90;;;14.23;;
23567;SDS011;11962;50.838;4.430;2023-05-10T04:14:08;27.00;;;14.65;;
23567;SDS011;11962;50.838;4.430;2023-05-10T04:16:34;23.73;;;13.07;;
23567;SDS011;11962;50.838;4.430;2023-05-10T04:18:59;21.48;;;13.55;;
23567;SDS011;11962;50.838;4.430;2023-05-10T04:21:25;27.48;;;13.82;;
23567;SDS011;11962;50.838;4.430;2023-05-10T04:23:51;23.90;;;14.05;;
23567;SDS011;11962;50.838;4.430;2023-05-10T04:26:17;24.48;;;14.63;;
23567;SDS011;11962;50.838;4.430;2023-05-10T04:28:42;23.98;;;14.50;;
23567;SDS011;11962;50.838;4.430;2023-05-10T04:31:09;22.92;;;13.63;;
23567;SDS011;11962;50.838;4.430;2023-05-10T04:33:35;25.63;;;15.38;;
23567;SDS011;11962;50.838;4.430;2023-05-10T04:36:02;28.02;;;15.43;;
23567;SDS011;11962;50.838;4.430;2023-05-10T04:38:28;26.02;;;14.80;;
23567;SDS011;11962;50.838;4.430;2023-05-10T04:40:54;24.23;;;15.30;;
23567;SDS011;11962;50.838;4.430;2023-05-10T04:43:28;31.13;;;15.90;;
23567;SDS011;11962;50.838;4.430;2023-05-10T04:45:56;27.92;;;16.25;;
23567;SDS011;11962;50.838;4.430;2023-05-10T04:48:22;27.38;;;16.05;;
23567;SDS011;11962;50.838;4.430;2023-05-10T04:50:47;28.58;;;16.10;;
23567;SDS011;11962;50.838;4.430;2023-05-10T04:53:13;28.05;;;16.33;;
23567;SDS011;11962;50.838;4.430;2023-05-10T04:55:39;29.02;;;17.30;;
23567;SDS011;11962;50.838;4.430;2023-05-10T04:58:04;29.90;;;16.33;;
23567;SDS011;11962;50.838;4.430;2023-05-10T05:00:30;26.23;;;16.02;;
23567;SDS011;11962;50.838;4.430;2023-05-10T05:02:56;31.15;;;16.75;;
23567;SDS011;11962;50.838;4.430;2023-05-10T05:05:22;25.58;;;16.02;;
23567;SDS011;11962;50.838;4.430;2023-05-10T05:07:48;32.50;;;17.38;;
23567;SDS011;11962;50.838;4.430;2023-05-10T05:10:14;25.40;;;17.08;;
23567;SDS011;11962;50.838;4.430;2023-05-10T05:12:40;28.83;;;17.85;;
23567;SDS011;11962;50.838;4.430;2023-05-10T05:15:05;26.55;;;16.52;;
23567;SDS011;11962;50.838;4.430;2023-05-10T05:17:33;28.17;;;17.63;;
23567;SDS011;11962;50.838;4.430;2023-05-10T05:19:58;26.70;;;16.80;;
23567;SDS011;11962;50.838;4.430;2023-05-10T05:22:24;26.27;;;17.42;;
23567;SDS011;11962;50.838;4.430;2023-05-10T05:24:56;28.95;;;17.85;;
23567;SDS011;11962;50.838;4.430;2023-05-10T05:27:23;30.38;;;17.05;;
23567;SDS011;11962;50.838;4.430;2023-05-10T05:29:53;30.55;;;17.77;;
23567;SDS011;11962;50.838;4.430;2023-05-10T05:32:20;25.80;;;15.32;;
23567;SDS011;11962;50.838;4.430;2023-05-10T05:34:46;23.80;;;14.00;;
23567;SDS011;11962;50.838;4.430;2023-05-10T05:37:13;18.73;;;11.57;;
23567;SDS011;11962;50.838;4.430;2023-05-10T05:39:43;16.77;;;10.75;;
23567;SDS011;11962;50.838;4.430;2023-05-10T05:42:10;13.18;;;8.75;;
23567;SDS011;11962;50.838;4.430;2023-05-10T05:44:36;15.70;;;9.02;;
23567;SDS011;11962;50.838;4.430;2023-05-10T05:47:02;12.55;;;8.63;;
23567;SDS011;11962;50.838;4.430;2023-05-10T05:49:28;17.10;;;8.85;;
23567;SDS011;11962;50.838;4.430;2023-05-10T05:51:54;13.05;;;8.38;;
23567;SDS011;11962;50.838;4.430;2023-05-10T05:54:23;15.00;;;8.43;;
23567;SDS011;11962;50.838;4.430;2023-05-10T05:56:49;12.43;;;8.82;;
23567;SDS011;11962;50.838;4.430;2023-05-10T05:59:14;11.90;;;8.27;;
23567;SDS011;11962;50.838;4.430;2023-05-10T06:01:40;13.30;;;8.18;;
23567;SDS011;11962;50.838;4.430;2023-05-10T06:04:06;11.52;;;8.48;;
23567;SDS011;11962;50.838;4.430;2023-05-10T06:06:31;15.68;;;10.15;;
23567;SDS011;11962;50.838;4.430;2023-05-10T06:08:57;14.98;;;8.52;;
23567;SDS011;11962;50.838;4.430;2023-05-10T06:11:23;14.73;;;9.30;;
23567;SDS011;11962;50.838;4.430;2023-05-10T06:13:49;15.55;;;10.38;;
23567;SDS011;11962;50.838;4.430;2023-05-10T06:16:14;14.63;;;9.52;;
23567;SDS011;11962;50.838;4.430;2023-05-10T06:18:40;18.20;;;9.73;;
23567;SDS011;11962;50.838;4.430;2023-05-10T06:21:06;15.68;;;9.10;;
23567;SDS011;11962;50.838;4.430;2023-05-10T06:23:31;14.07;;;8.38;;
23567;SDS011;11962;50.838;4.430;2023-05-10T06:25:57;16.73;;;8.60;;
23567;SDS011;11962;50.838;4.430;2023-05-10T06:28:23;12.32;;;7.88;;
23567;SDS011;11962;50.838;4.430;2023-05-10T06:30:49;11.95;;;6.60;;
23567;SDS011;11962;50.838;4.430;2023-05-10T06:33:14;9.27;;;5.60;;
23567;SDS011;11962;50.838;4.430;2023-05-10T06:35:41;11.25;;;5.50;;
23567;SDS011;11962;50.838;4.430;2023-05-10T06:38:06;8.32;;;5.03;;
23567;SDS011;11962;50.838;4.430;2023-05-10T06:40:32;8.38;;;4.93;;
23567;SDS011;11962;50.838;4.430;2023-05-10T06:42:58;7.18;;;4.55;;
23567;SDS011;11962;50.838;4.430;2023-05-10T06:45:26;7.55;;;4.50;;
23567;SDS011;11962;50.838;4.430;2023-05-10T06:47:52;5.85;;;4.40;;
23567;SDS011;11962;50.838;4.430;2023-05-10T06:50:18;9.70;;;4.10;;
23567;SDS011;11962;50.838;4.430;2023-05-10T06:52:44;7.15;;;3.75;;
23567;SDS011;11962;50.838;4.430;2023-05-10T06:55:09;4.43;;;3.15;;
23567;SDS011;11962;50.838;4.430;2023-05-10T06:57:35;3.55;;;2.80;;
23567;SDS011;11962;50.838;4.430;2023-05-10T07:00:01;7.35;;;3.20;;
23567;SDS011;11962;50.838;4.430;2023-05-10T07:02:29;6.63;;;3.60;;
23567;SDS011;11962;50.838;4.430;2023-05-10T07:04:55;8.30;;;3.75;;
23567;SDS011;11962;50.838;4.430;2023-05-10T07:07:21;4.55;;;3.80;;
23567;SDS011;11962;50.838;4.430;2023-05-10T07:09:47;5.47;;;3.92;;
23567;SDS011;11962;50.838;4.430;2023-05-10T07:12:14;6.38;;;4.18;;
23567;SDS011;11962;50.838;4.430;2023-05-10T07:14:39;9.93;;;4.50;;
23567;SDS011;11962;50.838;4.430;2023-05-10T07:17:05;8.93;;;4.57;;
23567;SDS011;11962;50.838;4.430;2023-05-10T07:19:31;9.32;;;4.82;;
23567;SDS011;11962;50.838;4.430;2023-05-10T07:21:57;11.68;;;5.53;;
23567;SDS011;11962;50.838;4.430;2023-05-10T07:24:23;11.77;;;5.75;;
23567;SDS011;11962;50.838;4.430;2023-05-10T07:26:49;9.38;;;5.30;;
23567;SDS011;11962;50.838;4.430;2023-05-10T07:29:15;12.65;;;6.13;;
23567;SDS011;11962;50.838;4.430;2023-05-10T07:31:41;11.48;;;5.95;;
23567;SDS011;11962;50.838;4.430;2023-05-10T07:36:35;11.30;;;6.38;;
23567;SDS011;11962;50.838;4.430;2023-05-10T07:39:00;13.90;;;6.60;;
23567;SDS011;11962;50.838;4.430;2023-05-10T07:41:27;12.90;;;6.60;;
23567;SDS011;11962;50.838;4.430;2023-05-10T07:43:52;11.88;;;6.80;;
23567;SDS011;11962;50.838;4.430;2023-05-10T07:46:18;11.38;;;6.50;;
23567;SDS011;11962;50.838;4.430;2023-05-10T07:48:44;16.17;;;6.78;;
23567;SDS011;11962;50.838;4.430;2023-05-10T07:51:10;15.68;;;7.47;;
23567;SDS011;11962;50.838;4.430;2023-05-10T07:53:37;11.75;;;6.80;;
23567;SDS011;11962;50.838;4.430;2023-05-10T07:56:25;12.43;;;7.88;;
23567;SDS011;11962;50.838;4.430;2023-05-10T07:58:50;14.05;;;6.65;;
23567;SDS011;11962;50.838;4.430;2023-05-10T08:01:16;10.20;;;6.38;;
23567;SDS011;11962;50.838;4.430;2023-05-10T08:03:42;12.68;;;7.03;;
23567;SDS011;11962;50.838;4.430;2023-05-10T08:06:08;14.00;;;6.88;;
23567;SDS011;11962;50.838;4.430;2023-05-10T08:08:33;13.63;;;7.13;;
23567;SDS011;11962;50.838;4.430;2023-05-10T08:10:59;9.88;;;6.70;;
23567;SDS011;11962;50.838;4.430;2023-05-10T08:13:25;10.10;;;7.18;;
23567;SDS011;11962;50.838;4.430;2023-05-10T08:15:50;11.68;;;6.20;;
23567;SDS011;11962;50.838;4.430;2023-05-10T08:18:18;13.18;;;6.70;;
23567;SDS011;11962;50.838;4.430;2023-05-10T08:20:44;11.35;;;6.18;;
23567;SDS011;11962;50.838;4.430;2023-05-10T08:23:10;10.38;;;6.05;;
23567;SDS011;11962;50.838;4.430;2023-05-10T08:25:37;16.33;;;6.68;;
23567;SDS011;11962;50.838;4.430;2023-05-10T08:28:03;11.95;;;6.35;;
23567;SDS011;11962;50.838;4.430;2023-05-10T08:30:28;9.70;;;6.03;;
23567;SDS011;11962;50.838;4.430;2023-05-10T08:32:54;9.57;;;5.82;;
23567;SDS011;11962;50.838;4.430;2023-05-10T08:35:20;12.57;;;5.90;;
23567;SDS011;11962;50.838;4.430;2023-05-10T08:37:46;9.30;;;5.78;;
23567;SDS011;11962;50.838;4.430;2023-05-10T08:40:11;8.40;;;5.55;;
23567;SDS011;11962;50.838;4.430;2023-05-10T08:42:39;9.50;;;5.35;;
23567;SDS011;11962;50.838;4.430;2023-05-10T08:45:07;11.38;;;5.30;;
23567;SDS011;11962;50.838;4.430;2023-05-10T08:47:34;8.15;;;3.97;;
23567;SDS011;11962;50.838;4.430;2023-05-10T08:50:03;7.97;;;4.35;;
23567;SDS011;11962;50.838;4.430;2023-05-10T08:52:29;6.78;;;4.40;;
23567;SDS011;11962;50.838;4.430;2023-05-10T08:54:57;6.25;;;4.40;;
23567;SDS011;11962;50.838;4.430;2023-05-10T08:57:23;7.18;;;4.65;;
23567;SDS011;11962;50.838;4.430;2023-05-10T08:59:49;7.35;;;4.70;;
23567;SDS011;11962;50.838;4.430;2023-05-10T09:02:15;6.15;;;4.30;;
23567;SDS011;11962;50.838;4.430;2023-05-10T09:04:43;9.43;;;4.50;;
23567;SDS011;11962;50.838;4.430;2023-05-10T09:07:09;6.10;;;3.95;;
23567;SDS011;11962;50.838;4.430;2023-05-10T09:09:36;7.10;;;4.50;;
23567;SDS011;11962;50.838;4.430;2023-05-10T09:12:02;8.13;;;4.90;;
23567;SDS011;11962;50.838;4.430;2023-05-10T09:14:28;7.97;;;5.40;;
23567;SDS011;11962;50.838;4.430;2023-05-10T09:16:55;9.18;;;5.68;;
23567;SDS011;11962;50.838;4.430;2023-05-10T09:19:21;10.27;;;6.07;;
23567;SDS011;11962;50.838;4.430;2023-05-10T09:21:47;11.23;;;6.30;;
23567;SDS011;11962;50.838;4.430;2023-05-10T09:24:14;11.27;;;5.70;;
23567;SDS011;11962;50.838;4.430;2023-05-10T09:26:46;11.85;;;5.88;;
23567;SDS011;11962;50.838;4.430;2023-05-10T09:29:15;8.60;;;5.28;;
23567;SDS011;11962;50.838;4.430;2023-05-10T09:31:45;7.35;;;5.18;;
23567;SDS011;11962;50.838;4.430;2023-05-10T09:34:20;7.63;;;5.00;;
23567;SDS011;11962;50.838;4.430;2023-05-10T09:36:59;9.88;;;5.03;;
23567;SDS011;11962;50.838;4.430;2023-05-10T09:39:34;8.15;;;4.70;;
23567;SDS011;11962;50.838;4.430;2023-05-10T09:42:02;7.30;;;4.75;;
23567;SDS011;11962;50.838;4.430;2023-05-10T09:44:29;8.38;;;4.43;;
23567;SDS011;11962;50.838;4.430;2023-05-10T09:46:56;6.75;;;4.13;;
23567;SDS011;11962;50.838;4.430;2023-05-10T09:49:22;9.20;;;4.95;;
23567;SDS011;11962;50.838;4.430;2023-05-10T09:51:57;9.05;;;4.60;;
23567;SDS011;11962;50.838;4.430;2023-05-10T09:54:29;8.13;;;4.38;;
23567;SDS011;11962;50.838;4.430;2023-05-10T09:56:54;9.25;;;3.83;;
23567;SDS011;11962;50.838;4.430;2023-05-10T09:59:20;10.75;;;3.92;;
23567;SDS011;11962;50.838;4.430;2023-05-10T10:01:50;6.25;;;3.33;;
23567;SDS011;11962;50.838;4.430;2023-05-10T10:04:16;6.88;;;3.22;;
23567;SDS011;11962;50.838;4.430;2023-05-10T10:06:42;4.32;;;3.10;;
23567;SDS011;11962;50.838;4.430;2023-05-10T10:09:08;7.20;;;3.25;;
23567;SDS011;11962;50.838;4.430;2023-05-10T10:11:38;3.67;;;2.88;;
23567;SDS011;11962;50.838;4.430;2023-05-10T10:14:04;4.85;;;2.70;;
23567;SDS011;11962;50.838;4.430;2023-05-10T10:16:31;3.80;;;2.85;;
23567;SDS011;11962;50.838;4.430;2023-05-10T10:18:57;6.38;;;2.80;;
23567;SDS011;11962;50.838;4.430;2023-05-10T10:21:24;4.03;;;2.70;;
23567;SDS011;11962;50.838;4.430;2023-05-10T10:23:50;6.13;;;3.08;;
23567;SDS011;11962;50.838;4.430;2023-05-10T10:26:17;3.35;;;2.78;;
23567;SDS011;11962;50.838;4.430;2023-05-10T10:28:51;3.60;;;2.65;;
23567;SDS011;11962;50.838;4.430;2023-05-10T10:34:27;3.40;;;2.90;;
23567;SDS011;11962;50.838;4.430;2023-05-10T10:36:54;3.92;;;3.00;;
23567;SDS011;11962;50.838;4.430;2023-05-10T10:39:22;3.08;;;2.78;;
23567;SDS011;11962;50.838;4.430;2023-05-10T10:41:53;3.47;;;3.13;;
23567;SDS011;11962;50.838;4.430;2023-05-10T10:55:00;3.53;;;2.72;;
23567;SDS011;11962;50.838;4.430;2023-05-10T10:57:32;5.78;;;2.72;;
23567;SDS011;11962;50.838;4.430;2023-05-10T11:03:00;4.18;;;3.17;;
23567;SDS011;11962;50.838;4.430;2023-05-10T11:16:17;4.15;;;2.85;;
23567;SDS011;11962;50.838;4.430;2023-05-10T11:18:54;9.23;;;3.15;;
23567;SDS011;11962;50.838;4.430;2023-05-10T11:21:24;3.58;;;2.85;;
23567;SDS011;11962;50.838;4.430;2023-05-10T11:23:51;4.28;;;3.35;;
23567;SDS011;11962;50.838;4.430;2023-05-10T11:26:21;3.78;;;3.17;;
23567;SDS011;11962;50.838;4.430;2023-05-10T11:28:50;4.20;;;3.50;;
23567;SDS011;11962;50.838;4.430;2023-05-10T11:31:18;3.92;;;2.95;;
23567;SDS011;11962;50.838;4.430;2023-05-10T11:36:15;4.18;;;3.03;;
23567;SDS011;11962;50.838;4.430;2023-05-10T11:38:45;3.47;;;2.78;;
23567;SDS011;11962;50.838;4.430;2023-05-10T11:41:11;3.75;;;2.78;;
23567;SDS011;11962;50.838;4.430;2023-05-10T11:43:38;3.97;;;3.13;;
23567;SDS011;11962;50.838;4.430;2023-05-10T11:46:06;4.97;;;3.20;;
23567;SDS011;11962;50.838;4.430;2023-05-10T11:48:35;4.05;;;2.95;;
23567;SDS011;11962;50.838;4.430;2023-05-10T11:51:03;2.85;;;2.50;;
23567;SDS011;11962;50.838;4.430;2023-05-10T11:53:31;4.80;;;3.00;;
23567;SDS011;11962;50.838;4.430;2023-05-10T11:58:33;6.20;;;2.97;;
23567;SDS011;11962;50.838;4.430;2023-05-10T12:01:00;3.78;;;2.92;;
23567;SDS011;11962;50.838;4.430;2023-05-10T12:03:29;3.22;;;2.40;;
23567;SDS011;11962;50.838;4.430;2023-05-10T12:05:56;2.75;;;2.25;;
23567;SDS011;11962;50.838;4.430;2023-05-10T12:08:23;3.38;;;2.60;;
23567;SDS011;11962;50.838;4.430;2023-05-10T12:10:53;3.38;;;2.83;;
23567;SDS011;11962;50.838;4.430;2023-05-10T12:13:29;3.88;;;2.90;;
23567;SDS011;11962;50.838;4.430;2023-05-10T12:15:57;4.35;;;2.88;;
23567;SDS011;11962;50.838;4.430;2023-05-10T12:20:52;6.43;;;3.22;;
23567;SDS011;11962;50.838;4.430;2023-05-10T12:23:20;3.53;;;3.00;;
23567;SDS011;11962;50.838;4.430;2023-05-10T12:25:46;4.80;;;3.38;;
23567;SDS011;11962;50.838;4.430;2023-05-10T12:28:12;7.80;;;3.38;;
23567;SDS011;11962;50.838;4.430;2023-05-10T12:30:38;5.10;;;3.40;;
23567;SDS011;11962;50.838;4.430;2023-05-10T12:33:10;6.00;;;2.80;;
23567;SDS011;11962;50.838;4.430;2023-05-10T12:35:48;6.40;;;3.10;;
23567;SDS011;11962;50.838;4.430;2023-05-10T12:38:34;4.00;;;3.05;;
23567;SDS011;11962;50.838;4.430;2023-05-10T12:41:03;5.97;;;3.25;;
23567;SDS011;11962;50.838;4.430;2023-05-10T12:43:33;3.70;;;3.30;;
23567;SDS011;11962;50.838;4.430;2023-05-10T12:48:36;4.28;;;3.17;;
23567;SDS011;11962;50.838;4.430;2023-05-10T12:51:03;5.47;;;3.67;;
23567;SDS011;11962;50.838;4.430;2023-05-10T12:53:30;3.92;;;3.40;;
23567;SDS011;11962;50.838;4.430;2023-05-10T12:55:56;7.07;;;4.13;;
23567;SDS011;11962;50.838;4.430;2023-05-10T12:58:22;5.82;;;4.00;;
23567;SDS011;11962;50.838;4.430;2023-05-10T13:00:48;56.70;;;8.07;;
23567;SDS011;11962;50.838;4.430;2023-05-10T13:03:14;5.50;;;4.60;;
23567;SDS011;11962;50.838;4.430;2023-05-10T13:05:40;5.40;;;4.55;;
23567;SDS011;11962;50.838;4.430;2023-05-10T13:08:06;4.93;;;4.20;;
23567;SDS011;11962;50.838;4.430;2023-05-10T13:10:32;5.55;;;4.38;;
23567;SDS011;11962;50.838;4.430;2023-05-10T13:12:58;5.45;;;3.90;;
23567;SDS011;11962;50.838;4.430;2023-05-10T13:15:24;5.13;;;4.13;;
23567;SDS011;11962;50.838;4.430;2023-05-10T13:17:50;7.72;;;3.85;;
23567;SDS011;11962;50.838;4.430;2023-05-10T13:20:17;4.47;;;3.70;;
23567;SDS011;11962;50.838;4.430;2023-05-10T13:22:43;6.10;;;4.10;;
23567;SDS011;11962;50.838;4.430;2023-05-10T13:25:09;4.47;;;3.53;;
23567;SDS011;11962;50.838;4.430;2023-05-10T13:27:35;4.90;;;3.53;;
23567;SDS011;11962;50.838;4.430;2023-05-10T13:30:02;5.07;;;3.10;;
23567;SDS011;11962;50.838;4.430;2023-05-10T13:32:29;6.68;;;2.67;;
23567;SDS011;11962;50.838;4.430;2023-05-10T13:34:55;4.32;;;2.45;;
23567;SDS011;11962;50.838;4.430;2023-05-10T13:37:21;4.93;;;2.25;;
23567;SDS011;11962;50.838;4.430;2023-05-10T13:39:47;3.58;;;2.20;;
23567;SDS011;11962;50.838;4.430;2023-05-10T13:42:13;3.25;;;2.25;;
23567;SDS011;11962;50.838;4.430;2023-05-10T13:44:39;3.00;;;2.40;;
23567;SDS011;11962;50.838;4.430;2023-05-10T13:47:05;3.20;;;2.30;;
23567;SDS011;11962;50.838;4.430;2023-05-10T13:49:31;5.68;;;3.28;;
23567;SDS011;11962;50.838;4.430;2023-05-10T13:51:57;5.72;;;3.63;;
23567;SDS011;11962;50.838;4.430;2023-05-10T13:54:23;4.90;;;3.45;;
23567;SDS011;11962;50.838;4.430;2023-05-10T13:56:49;5.82;;;4.03;;
23567;SDS011;11962;50.838;4.430;2023-05-10T13:59:15;10.48;;;4.60;;
23567;SDS011;11962;50.838;4.430;2023-05-10T14:01:41;5.53;;;4.70;;
23567;SDS011;11962;50.838;4.430;2023-05-10T14:04:07;7.45;;;4.18;;
23567;SDS011;11962;50.838;4.430;2023-05-10T14:06:35;8.63;;;4.40;;
23567;SDS011;11962;50.838;4.430;2023-05-10T14:09:02;6.60;;;4.00;;
23567;SDS011;11962;50.838;4.430;2023-05-10T14:11:28;7.20;;;4.50;;
23567;SDS011;11962;50.838;4.430;2023-05-10T14:13:54;7.90;;;5.25;;
23567;SDS011;11962;50.838;4.430;2023-05-10T14:16:20;9.23;;;6.05;;
23567;SDS011;11962;50.838;4.430;2023-05-10T14:18:46;8.15;;;6.00;;
23567;SDS011;11962;50.838;4.430;2023-05-10T14:21:12;8.93;;;6.07;;
23567;SDS011;11962;50.838;4.430;2023-05-10T14:23:38;9.98;;;6.63;;
23567;SDS011;11962;50.838;4.430;2023-05-10T14:26:04;9.82;;;6.78;;
23567;SDS011;11962;50.838;4.430;2023-05-10T14:28:30;8.25;;;6.53;;
23567;SDS011;11962;50.838;4.430;2023-05-10T14:30:55;11.35;;;6.47;;
23567;SDS011;11962;50.838;4.430;2023-05-10T14:33:21;9.05;;;6.15;;
23567;SDS011;11962;50.838;4.430;2023-05-10T14:35:47;9.18;;;7.10;;
23567;SDS011;11962;50.838;4.430;2023-05-10T14:38:13;9.80;;;7.68;;
23567;SDS011;11962;50.838;4.430;2023-05-10T14:40:39;9.25;;;6.45;;
23567;SDS011;11962;50.838;4.430;2023-05-10T14:43:05;13.10;;;9.18;;
23567;SDS011;11962;50.838;4.430;2023-05-10T14:45:31;10.73;;;8.43;;
23567;SDS011;11962;50.838;4.430;2023-05-10T14:47:57;10.82;;;8.38;;
23567;SDS011;11962;50.838;4.430;2023-05-10T14:50:24;12.23;;;8.27;;
23567;SDS011;11962;50.838;4.430;2023-05-10T14:52:49;12.02;;;7.90;;
23567;SDS011;11962;50.838;4.430;2023-05-10T14:55:15;11.85;;;7.97;;
23567;SDS011;11962;50.838;4.430;2023-05-10T14:57:41;10.52;;;8.18;;
23567;SDS011;11962;50.838;4.430;2023-05-10T15:00:07;14.10;;;8.40;;
23567;SDS011;11962;50.838;4.430;2023-05-10T15:02:34;10.07;;;7.75;;
23567;SDS011;11962;50.838;4.430;2023-05-10T15:04:59;17.92;;;9.70;;
23567;SDS011;11962;50.838;4.430;2023-05-10T15:07:25;15.00;;;8.57;;
23567;SDS011;11962;50.838;4.430;2023-05-10T15:09:51;10.90;;;8.38;;
23567;SDS011;11962;50.838;4.430;2023-05-10T15:12:17;10.63;;;7.90;;
23567;SDS011;11962;50.838;4.430;2023-05-10T15:14:43;14.40;;;7.88;;
23567;SDS011;11962;50.838;4.430;2023-05-10T15:17:09;13.32;;;8.02;;
23567;SDS011;11962;50.838;4.430;2023-05-10T15:19:35;9.23;;;5.45;;
23567;SDS011;11962;50.838;4.430;2023-05-10T15:22:02;9.45;;;4.45;;
23567;SDS011;11962;50.838;4.430;2023-05-10T15:24:29;8.20;;;4.03;;
23567;SDS011;11962;50.838;4.430;2023-05-10T15:26:54;7.60;;;3.65;;
23567;SDS011;11962;50.838;4.430;2023-05-10T15:29:20;6.22;;;3.80;;
23567;SDS011;11962;50.838;4.430;2023-05-10T15:31:46;7.28;;;3.47;;
23567;SDS011;11962;50.838;4.430;2023-05-10T15:34:13;7.75;;;4.22;;
23567;SDS011;11962;50.838;4.430;2023-05-10T15:36:39;7.07;;;3.60;;
23567;SDS011;11962;50.838;4.430;2023-05-10T15:39:05;10.20;;;3.45;;
23567;SDS011;11962;50.838;4.430;2023-05-10T15:41:31;7.25;;;3.20;;
23567;SDS011;11962;50.838;4.430;2023-05-10T15:43:57;6.18;;;2.90;;